Time;durP1;ratioP1;P1;durP2;ratioP2;P2;SDS_P1;SDS_P2;PMS_P1;PMS_P2;Temp;Humidity;BMP_temperature;BMP_pressure;BME280_temperature;BME280_humidity;BME280_pressure;Samples;Min_cycle;Max_cycle;Signal;HPM_P1;HPM_P2
2023/11/04 00:01:53;;;;;;;7.17;1.90;;;7.40;99.90;;;;;;4806288;29;20187;-85
2023/11/04 00:04:19;;;;;;;10.40;1.83;;;7.30;99.90;;;;;;4806134;29;20229;-82
2023/11/04 00:06:45;;;;;;;6.70;1.97;;;7.30;99.90;;;;;;4805745;29;20233;-86
2023/11/04 00:09:11;;;;;;;7.00;1.33;;;7.20;99.90;;;;;;4809454;29;20194;-84
2023/11/04 00:11:37;;;;;;;9.27;2.00;;;7.20;99.90;;;;;;4809770;29;20198;-86
2023/11/04 00:14:04;;;;;;;9.13;1.40;;;7.30;99.90;;;;;;4809396;29;20197;-85
2023/11/04 00:16:30;;;;;;;8.77;1.90;;;7.20;99.90;;;;;;4809497;29;20241;-86
2023/11/04 00:18:55;;;;;;;10.27;1.40;;;7.20;99.90;;;;;;4809075;29;20658;-84
2023/11/04 00:21:21;;;;;;;6.33;1.60;;;7.20;99.90;;;;;;4809433;29;20218;-85
2023/11/04 00:23:47;;;;;;;8.50;1.70;;;7.20;99.90;;;;;;4809172;29;20225;-86
2023/11/04 00:26:12;;;;;;;8.33;1.17;;;7.20;99.90;;;;;;4809332;29;20229;-86
2023/11/04 00:28:38;;;;;;;5.67;1.40;;;7.10;99.90;;;;;;4809690;29;20226;-85
2023/11/04 00:31:04;;;;;;;8.60;1.83;;;7.10;99.90;;;;;;4809067;29;20577;-84
2023/11/04 00:33:31;;;;;;;7.43;1.83;;;7.10;99.90;;;;;;4809050;29;20194;-87
2023/11/04 00:35:57;;;;;;;6.27;1.70;;;7.20;99.90;;;;;;4809052;29;20201;-84
2023/11/04 00:38:22;;;;;;;12.83;1.43;;;7.20;99.90;;;;;;4808945;29;20191;-85
2023/11/04 00:40:48;;;;;;;5.83;1.20;;;7.10;99.90;;;;;;4809040;29;20299;-87
2023/11/04 00:43:14;;;;;;;9.20;1.70;;;7.10;99.90;;;;;;4808938;29;20217;-86
2023/11/04 00:45:40;;;;;;;5.40;1.50;;;7.10;99.90;;;;;;4808189;29;20701;-84
2023/11/04 00:48:05;;;;;;;7.53;1.60;;;7.10;99.90;;;;;;4808471;29;20190;-86
2023/11/04 00:50:31;;;;;;;16.77;1.90;;;7.00;99.90;;;;;;4808697;29;20190;-85
2023/11/04 00:52:59;;;;;;;7.93;1.67;;;7.00;99.90;;;;;;4808794;29;20199;-87
2023/11/04 00:55:25;;;;;;;6.17;1.47;;;6.90;99.90;;;;;;4809960;29;20191;-86
2023/11/04 00:57:51;;;;;;;10.97;2.23;;;7.00;99.90;;;;;;4808645;29;20523;-82
2023/11/04 01:00:23;;;;;;;6.97;1.50;;;6.90;99.90;;;;;;4808700;29;20222;-87
2023/11/04 01:02:55;;;;;;;7.90;1.63;;;7.00;99.90;;;;;;4808514;29;20584;-85
2023/11/04 01:05:25;;;;;;;7.83;1.77;;;6.90;99.90;;;;;;4808517;29;20198;-84
2023/11/04 01:07:52;;;;;;;6.83;1.30;;;6.90;99.90;;;;;;4808165;29;20191;-87
2023/11/04 01:10:18;;;;;;;8.77;1.83;;;6.90;99.90;;;;;;4808399;29;20195;-87
2023/11/04 01:12:50;;;;;;;8.37;1.80;;;6.90;99.90;;;;;;4808448;29;20243;-85
2023/11/04 01:15:16;;;;;;;9.17;1.60;;;6.90;99.90;;;;;;4808223;29;20194;-86
2023/11/04 01:17:41;;;;;;;15.00;2.17;;;6.90;99.90;;;;;;4808416;29;20634;-87
2023/11/04 01:20:08;;;;;;;9.43;1.40;;;6.80;99.90;;;;;;4807178;29;20229;-86
2023/11/04 01:22:35;;;;;;;9.97;1.50;;;6.80;99.90;;;;;;4809466;29;20183;-88
2023/11/04 01:25:02;;;;;;;7.50;1.60;;;6.80;99.90;;;;;;4808559;29;20195;-86
2023/11/04 01:27:28;;;;;;;6.50;1.70;;;6.80;99.90;;;;;;4808357;29;20222;-86
2023/11/04 01:29:54;;;;;;;6.43;1.70;;;6.70;99.90;;;;;;4808852;29;20229;-86
2023/11/04 01:32:20;;;;;;;10.07;2.43;;;6.70;99.90;;;;;;4808286;29;20277;-84
2023/11/04 01:34:50;;;;;;;8.60;1.50;;;6.70;99.90;;;;;;4809255;29;20630;-85
2023/11/04 01:37:15;;;;;;;9.20;1.50;;;6.70;99.90;;;;;;5211459;24;20358;-80
2023/11/04 01:39:41;;;;;;;6.53;1.20;;;6.70;99.90;;;;;;4807058;29;20226;-84
2023/11/04 01:42:07;;;;;;;6.90;1.50;;;6.70;99.90;;;;;;4808292;29;20652;-82
2023/11/04 01:44:33;;;;;;;4.27;1.50;;;6.60;99.90;;;;;;4806035;29;20205;-83
2023/11/04 01:47:03;;;;;;;8.43;1.43;;;6.60;99.90;;;;;;4808137;29;20217;-86
2023/11/04 01:49:31;;;;;;;7.70;1.40;;;6.60;99.90;;;;;;4806979;29;20195;-82
2023/11/04 01:51:57;;;;;;;6.83;1.70;;;6.60;99.90;;;;;;4806599;29;20261;-81
2023/11/04 01:54:24;;;;;;;9.07;1.13;;;6.50;99.90;;;;;;4807647;29;20197;-84
2023/11/04 01:56:52;;;;;;;9.60;1.53;;;6.50;99.90;;;;;;4808102;29;20650;-82
2023/11/04 01:59:18;;;;;;;10.60;2.07;;;6.60;99.90;;;;;;4808137;29;20218;-84
2023/11/04 02:01:48;;;;;;;5.43;1.63;;;6.50;99.90;;;;;;4807997;29;20224;-83
2023/11/04 02:04:15;;;;;;;5.23;1.50;;;6.50;99.90;;;;;;4806667;29;20202;-82
2023/11/04 02:06:42;;;;;;;5.53;1.40;;;6.40;99.90;;;;;;4807700;29;20186;-81
2023/11/04 02:09:09;;;;;;;6.37;1.63;;;6.40;99.90;;;;;;4807244;29;20190;-82
2023/11/04 02:11:35;;;;;;;9.13;1.47;;;6.40;99.90;;;;;;4807815;29;20752;-80
2023/11/04 02:14:01;;;;;;;8.73;1.50;;;6.40;99.90;;;;;;4807875;29;20183;-80
2023/11/04 02:16:26;;;;;;;8.20;1.80;;;6.40;99.90;;;;;;4807756;29;20217;-81
2023/11/04 02:18:52;;;;;;;7.40;1.83;;;6.40;99.90;;;;;;4808061;29;20210;-81
2023/11/04 02:21:18;;;;;;;9.13;1.73;;;6.40;99.90;;;;;;4807948;29;20259;-83
2023/11/04 02:23:43;;;;;;;6.67;1.60;;;6.40;99.90;;;;;;4807414;29;20251;-82
2023/11/04 02:26:09;;;;;;;6.23;1.70;;;6.40;99.90;;;;;;4807569;29;20590;-81
2023/11/04 02:28:35;;;;;;;6.80;1.70;;;6.40;99.90;;;;;;4808006;29;20197;-84
2023/11/04 02:31:00;;;;;;;7.43;1.57;;;6.40;99.90;;;;;;4807536;29;20206;-82
2023/11/04 02:33:26;;;;;;;4.43;1.50;;;6.40;99.90;;;;;;4807703;29;20201;-81
2023/11/04 02:35:52;;;;;;;3.83;1.23;;;6.40;99.90;;;;;;4806552;29;20281;-82
2023/11/04 02:38:19;;;;;;;7.20;1.43;;;6.40;99.90;;;;;;4805149;29;20238;-85
2023/11/04 02:40:44;;;;;;;8.70;1.57;;;6.40;99.90;;;;;;4807383;29;20658;-85
2023/11/04 02:43:11;;;;;;;12.43;1.67;;;6.40;99.90;;;;;;4807390;29;20194;-80
2023/11/04 02:45:37;;;;;;;7.37;1.57;;;6.40;99.90;;;;;;4806344;29;20206;-86
2023/11/04 02:48:02;;;;;;;6.33;1.13;;;6.40;99.90;;;;;;4807369;29;20194;-81
2023/11/04 02:50:28;;;;;;;7.47;1.57;;;6.40;99.90;;;;;;4807537;29;20198;-84
2023/11/04 02:52:54;;;;;;;6.93;1.77;;;6.40;99.90;;;;;;4806693;29;20199;-81
2023/11/04 02:55:20;;;;;;;7.37;1.40;;;6.40;99.90;;;;;;4807340;29;20202;-81
2023/11/04 02:57:47;;;;;;;9.40;1.80;;;6.40;99.90;;;;;;4806274;29;20198;-80
2023/11/04 03:00:14;;;;;;;8.67;1.63;;;6.40;99.90;;;;;;4806029;29;20234;-81
2023/11/04 03:02:41;;;;;;;5.50;1.27;;;6.40;99.90;;;;;;4806189;29;20202;-83
2023/11/04 03:05:07;;;;;;;3.97;1.40;;;6.40;99.90;;;;;;4807237;29;20198;-82
2023/11/04 03:07:35;;;;;;;6.77;1.47;;;6.40;99.90;;;;;;4805766;29;20206;-84
2023/11/04 03:10:02;;;;;;;4.27;1.57;;;6.40;99.90;;;;;;4807046;29;20224;-85
2023/11/04 03:12:27;;;;;;;5.47;1.60;;;6.40;99.90;;;;;;4806231;29;20314;-83
2023/11/04 03:14:53;;;;;;;3.07;1.10;;;6.40;99.90;;;;;;4807299;29;20262;-87
2023/11/04 03:17:19;;;;;;;5.80;1.23;;;6.30;99.90;;;;;;4807142;29;20269;-81
2023/11/04 03:19:45;;;;;;;5.93;1.43;;;6.30;99.90;;;;;;4807141;29;20329;-82
2023/11/04 03:22:11;;;;;;;4.27;1.27;;;6.30;99.90;;;;;;4805946;29;20194;-82
2023/11/04 03:24:41;;;;;;;5.97;1.57;;;6.30;99.90;;;;;;4805948;29;20251;-84
2023/11/04 03:27:07;;;;;;;6.27;1.27;;;6.30;99.90;;;;;;4807049;29;20182;-84
2023/11/04 03:29:32;;;;;;;7.87;1.43;;;6.30;99.90;;;;;;4807313;29;20209;-83
2023/11/04 03:31:58;;;;;;;6.80;1.57;;;6.20;99.90;;;;;;4807346;29;20198;-83
2023/11/04 03:34:24;;;;;;;5.43;1.00;;;6.20;99.90;;;;;;4806912;29;20198;-84
2023/11/04 03:36:51;;;;;;;7.60;1.80;;;6.20;99.90;;;;;;4809551;29;20225;-82
2023/11/04 03:39:18;;;;;;;5.20;1.60;;;6.20;99.90;;;;;;4807878;29;20233;-85
2023/11/04 03:41:44;;;;;;;6.90;2.00;;;6.20;99.90;;;;;;4825185;29;20895;-84
2023/11/04 03:44:09;;;;;;;6.13;1.80;;;6.20;99.90;;;;;;4811941;29;20197;-85
2023/11/04 03:46:35;;;;;;;7.30;1.90;;;6.20;99.90;;;;;;4828467;29;20194;-85
2023/11/04 03:49:01;;;;;;;7.77;2.07;;;6.20;99.90;;;;;;4828658;29;20197;-85
2023/11/04 03:51:27;;;;;;;6.13;1.60;;;6.20;99.90;;;;;;4828799;29;20686;-81
2023/11/04 03:53:53;;;;;;;6.47;1.70;;;6.20;99.90;;;;;;4811719;29;20205;-80
2023/11/04 03:56:19;;;;;;;7.33;2.27;;;6.20;99.90;;;;;;4811809;29;20219;-80
2023/11/04 03:58:44;;;;;;;7.47;1.90;;;6.20;99.90;;;;;;4827830;29;20251;-80
2023/11/04 04:01:10;;;;;;;6.83;1.57;;;6.10;99.90;;;;;;4827972;29;20200;-81
2023/11/04 04:03:36;;;;;;;7.17;1.97;;;6.20;99.90;;;;;;4811737;29;20622;-80
2023/11/04 04:06:02;;;;;;;5.53;1.90;;;6.10;99.90;;;;;;4827887;29;20200;-80
2023/11/04 04:08:27;;;;;;;7.40;1.90;;;6.10;99.90;;;;;;4811333;29;20193;-80
2023/11/04 04:10:53;;;;;;;3.60;1.57;;;6.10;99.90;;;;;;4827821;29;20233;-81
2023/11/04 04:13:19;;;;;;;7.80;1.97;;;6.10;99.90;;;;;;4827784;29;20197;-81
2023/11/04 04:15:44;;;;;;;7.20;1.93;;;6.20;99.90;;;;;;4811972;29;20276;-81
2023/11/04 04:18:10;;;;;;;7.10;1.43;;;6.10;99.90;;;;;;4827584;29;20618;-80
2023/11/04 04:20:36;;;;;;;7.53;1.63;;;6.10;99.90;;;;;;4811338;29;20312;-80
2023/11/04 04:23:02;;;;;;;5.30;1.50;;;6.10;99.90;;;;;;4827300;29;20190;-79
2023/11/04 04:25:28;;;;;;;5.90;1.37;;;6.10;99.90;;;;;;4827672;29;20200;-80
2023/11/04 04:27:54;;;;;;;4.00;1.50;;;6.10;99.90;;;;;;4827581;29;20532;-80
2023/11/04 04:30:20;;;;;;;2.57;1.30;;;6.10;99.90;;;;;;4811389;29;20197;-81
2023/11/04 04:32:47;;;;;;;5.73;1.60;;;6.20;99.90;;;;;;4827526;29;20201;-81
2023/11/04 04:35:13;;;;;;;5.83;1.50;;;6.10;99.90;;;;;;4810895;29;20231;-80
2023/11/04 04:37:38;;;;;;;5.60;1.57;;;6.00;99.90;;;;;;4826595;29;20237;-81
2023/11/04 04:40:06;;;;;;;21.57;1.60;;;6.00;99.90;;;;;;4810936;29;20233;-80
2023/11/04 04:42:31;;;;;;;4.47;1.07;;;6.10;99.90;;;;;;4827399;29;20272;-82
2023/11/04 04:44:57;;;;;;;7.47;1.40;;;6.00;99.90;;;;;;4827284;29;20272;-80
2023/11/04 04:47:23;;;;;;;3.77;1.50;;;6.00;99.90;;;;;;4827232;29;20231;-82
2023/11/04 04:49:49;;;;;;;7.20;1.30;;;6.00;99.90;;;;;;4810964;29;20206;-81
2023/11/04 04:52:16;;;;;;;3.60;1.23;;;6.00;99.90;;;;;;4810879;29;20197;-80
2023/11/04 04:54:42;;;;;;;4.03;1.30;;;6.00;99.90;;;;;;4809457;29;20641;-80
2023/11/04 04:57:07;;;;;;;4.40;1.10;;;6.00;99.90;;;;;;4826992;29;20193;-82
2023/11/04 04:59:34;;;;;;;3.13;1.10;;;6.00;99.90;;;;;;4827304;29;20217;-81
2023/11/04 05:02:03;;;;;;;6.57;1.10;;;6.00;99.90;;;;;;4827031;29;20681;-80
2023/11/04 05:04:28;;;;;;;3.73;1.33;;;6.00;99.90;;;;;;4810763;29;20197;-81
2023/11/04 05:06:54;;;;;;;4.73;1.20;;;6.00;99.90;;;;;;4810730;29;20201;-81
2023/11/04 05:09:21;;;;;;;6.33;1.27;;;6.00;99.90;;;;;;4826568;29;20190;-81
2023/11/04 05:11:47;;;;;;;2.83;0.90;;;6.00;99.90;;;;;;4827055;29;20193;-81
2023/11/04 05:14:12;;;;;;;5.87;1.27;;;6.00;99.90;;;;;;4826769;29;20201;-80
2023/11/04 05:16:39;;;;;;;4.57;1.30;;;6.00;99.90;;;;;;4826818;29;20189;-80
2023/11/04 05:19:04;;;;;;;4.07;1.17;;;6.10;99.90;;;;;;4810653;29;20230;-80
2023/11/04 05:21:30;;;;;;;4.33;1.20;;;6.20;99.90;;;;;;4810791;29;20269;-81
2023/11/04 05:23:56;;;;;;;3.03;1.03;;;6.20;99.90;;;;;;4810455;29;20720;-80
2023/11/04 05:26:22;;;;;;;2.93;1.00;;;6.20;99.90;;;;;;4810608;29;20254;-82
2023/11/04 05:28:48;;;;;;;3.80;1.47;;;6.30;99.90;;;;;;4826392;29;20644;-81
2023/11/04 05:31:17;;;;;;;4.03;1.17;;;6.30;99.90;;;;;;4825461;29;20201;-80
2023/11/04 05:33:42;;;;;;;6.70;1.27;;;6.30;99.90;;;;;;4826382;29;20273;-82
2023/11/04 05:36:10;;;;;;;2.70;0.90;;;6.30;99.90;;;;;;4825916;29;20324;-82
2023/11/04 05:38:36;;;;;;;2.97;1.00;;;6.30;99.90;;;;;;4809304;29;20585;-80
2023/11/04 05:41:02;;;;;;;3.67;1.33;;;6.40;99.90;;;;;;4826463;29;20222;-81
2023/11/04 05:43:28;;;;;;;2.90;1.00;;;6.40;99.90;;;;;;4826484;29;20182;-82
2023/11/04 05:45:53;;;;;;;4.07;1.40;;;6.40;99.90;;;;;;4826282;29;20261;-84
2023/11/04 05:48:20;;;;;;;4.53;1.10;;;6.40;99.90;;;;;;4809972;29;20193;-82
2023/11/04 05:50:46;;;;;;;9.43;1.10;;;6.40;99.90;;;;;;4809853;29;20247;-81
2023/11/04 05:53:13;;;;;;;3.33;1.13;;;6.40;99.90;;;;;;4825617;29;20626;-80
2023/11/04 05:55:39;;;;;;;3.90;1.00;;;6.30;99.90;;;;;;4805187;29;20512;-81
2023/11/04 05:58:05;;;;;;;4.13;1.10;;;6.30;99.90;;;;;;4803463;29;20186;-80
2023/11/04 06:00:31;;;;;;;6.33;1.57;;;6.30;99.90;;;;;;4802840;29;20229;-80
2023/11/04 06:02:57;;;;;;;3.10;1.07;;;6.20;99.90;;;;;;4819245;29;20179;-80
2023/11/04 06:05:23;;;;;;;3.73;1.03;;;6.20;99.90;;;;;;4804718;29;20189;-81
2023/11/04 06:07:50;;;;;;;1.83;0.97;;;6.30;99.90;;;;;;4808659;29;20209;-81
2023/11/04 06:10:16;;;;;;;2.40;0.70;;;6.40;99.90;;;;;;4825405;29;20193;-81
2023/11/04 06:12:42;;;;;;;2.67;1.00;;;6.40;99.90;;;;;;4824882;29;20197;-79
2023/11/04 06:15:08;;;;;;;2.40;1.10;;;6.40;99.90;;;;;;4821513;29;20186;-81
2023/11/04 06:17:34;;;;;;;2.10;0.93;;;6.50;99.90;;;;;;4803335;29;20220;-81
2023/11/04 06:19:59;;;;;;;2.20;0.90;;;6.50;99.90;;;;;;4819438;29;20222;-81
2023/11/04 06:22:25;;;;;;;3.20;0.90;;;6.60;99.90;;;;;;4803499;29;20186;-80
2023/11/04 06:24:54;;;;;;;2.90;1.30;;;6.60;99.90;;;;;;4817266;29;20222;-80
2023/11/04 06:27:20;;;;;;;3.10;0.97;;;6.70;99.90;;;;;;4803361;29;20194;-80
2023/11/04 06:29:46;;;;;;;2.57;0.80;;;6.60;99.90;;;;;;4817199;29;20193;-80
2023/11/04 06:32:12;;;;;;;0.90;0.70;;;6.60;99.90;;;;;;4821606;29;20190;-81
2023/11/04 06:34:39;;;;;;;1.93;0.83;;;6.60;99.90;;;;;;4809558;29;20204;-82
2023/11/04 06:37:06;;;;;;;1.77;0.80;;;6.50;99.90;;;;;;4824695;29;20237;-83
2023/11/04 06:39:31;;;;;;;2.43;0.80;;;6.50;99.90;;;;;;4825363;29;20293;-86
2023/11/04 06:41:58;;;;;;;2.10;0.70;;;6.50;99.90;;;;;;4825437;29;20281;-82
2023/11/04 06:44:23;;;;;;;1.90;1.00;;;6.50;99.90;;;;;;4817921;29;20215;-84
2023/11/04 06:46:49;;;;;;;1.27;0.70;;;6.50;99.90;;;;;;4809019;29;20269;-82
2023/11/04 06:49:16;;;;;;;2.97;0.70;;;6.50;99.90;;;;;;4808895;29;20190;-84
2023/11/04 06:51:42;;;;;;;4.30;1.10;;;6.50;99.90;;;;;;4821496;29;20201;-83
2023/11/04 06:54:08;;;;;;;2.10;0.83;;;6.50;99.90;;;;;;4808979;29;20642;-82
2023/11/04 06:56:34;;;;;;;4.93;1.17;;;6.50;99.90;;;;;;4805537;29;20713;-81
2023/11/04 06:59:00;;;;;;;2.73;1.00;;;6.50;99.90;;;;;;4823441;29;20194;-84
2023/11/04 07:01:26;;;;;;;3.30;0.90;;;6.50;99.90;;;;;;4808212;29;20540;-84
2023/11/04 07:03:53;;;;;;;6.57;1.00;;;6.50;99.90;;;;;;4808507;29;20190;-81
2023/11/04 07:06:19;;;;;;;2.50;0.80;;;6.60;99.90;;;;;;4824845;29;20201;-82
2023/11/04 07:08:46;;;;;;;2.07;0.90;;;6.60;99.90;;;;;;4800989;29;20633;-82
2023/11/04 07:11:16;;;;;;;2.23;0.80;;;6.60;99.90;;;;;;4806569;29;20194;-83
2023/11/04 07:13:43;;;;;;;4.70;0.93;;;6.70;99.90;;;;;;4824320;29;20185;-84
2023/11/04 07:16:10;;;;;;;0.60;0.60;;;6.70;99.90;;;;;;4808184;29;20217;-83
2023/11/04 07:18:36;;;;;;;1.43;0.80;;;6.70;99.90;;;;;;4807878;29;20262;-84
2023/11/04 07:21:02;;;;;;;3.23;0.90;;;6.70;99.90;;;;;;4824836;29;20653;-84
2023/11/04 07:23:28;;;;;;;3.47;0.87;;;6.70;99.90;;;;;;4824791;29;20228;-84
2023/11/04 07:25:54;;;;;;;5.10;0.87;;;6.70;99.90;;;;;;4824813;29;20222;-85
2023/11/04 07:28:24;;;;;;;1.13;0.83;;;6.80;99.90;;;;;;4810965;29;20525;-85
2023/11/04 07:30:51;;;;;;;4.60;0.90;;;6.80;99.90;;;;;;4808693;29;20239;-85
2023/11/04 07:33:19;;;;;;;1.37;0.80;;;6.90;99.90;;;;;;4824306;29;20209;-84
2023/11/04 07:35:45;;;;;;;2.30;0.80;;;6.90;99.90;;;;;;4808251;29;20205;-83
2023/11/04 07:38:11;;;;;;;2.73;0.90;;;7.00;99.90;;;;;;4823809;29;20598;-82
2023/11/04 07:40:37;;;;;;;5.57;0.80;;;7.10;99.90;;;;;;4807808;29;20316;-82
2023/11/04 07:43:03;;;;;;;1.57;0.57;;;7.20;99.90;;;;;;4824618;29;20186;-86
2023/11/04 07:45:29;;;;;;;2.70;0.80;;;7.30;99.90;;;;;;4824868;29;20186;-83
2023/11/04 07:47:55;;;;;;;1.37;0.60;;;7.50;99.90;;;;;;4807354;29;20197;-82
2023/11/04 07:50:20;;;;;;;0.90;0.60;;;7.60;99.90;;;;;;4824774;29;20575;-91
2023/11/04 07:52:46;;;;;;;2.10;0.70;;;7.70;99.90;;;;;;4823447;29;20194;-82
2023/11/04 07:55:12;;;;;;;1.20;0.60;;;7.80;99.90;;;;;;4823531;29;20197;-88
2023/11/04 07:57:38;;;;;;;2.60;0.90;;;8.00;99.90;;;;;;4808305;29;20193;-82
2023/11/04 08:00:08;;;;;;;2.83;0.80;;;8.10;99.90;;;;;;4824320;29;20242;-92
2023/11/04 08:02:37;;;;;;;1.47;0.70;;;8.20;99.90;;;;;;4823859;29;20630;-87
2023/11/04 08:05:04;;;;;;;2.20;0.70;;;8.30;99.90;;;;;;4824928;29;20192;-88
2023/11/04 08:07:30;;;;;;;1.47;0.60;;;8.40;99.90;;;;;;4824733;29;20650;-90
2023/11/04 08:09:57;;;;;;;2.70;0.70;;;8.50;99.90;;;;;;4823598;29;20186;-82
2023/11/04 08:12:23;;;;;;;2.13;0.70;;;8.50;99.90;;;;;;4816878;29;20190;-83
2023/11/04 08:14:49;;;;;;;1.23;0.80;;;8.60;99.90;;;;;;4808245;29;20539;-81
2023/11/04 08:17:15;;;;;;;2.70;0.75;;;8.60;99.90;;;;;;4824301;29;20306;-81
2023/11/04 08:19:40;;;;;;;1.75;0.70;;;8.60;99.90;;;;;;4824496;29;20218;-81
2023/11/04 08:22:07;;;;;;;1.08;0.60;;;8.60;99.90;;;;;;4807816;29;20208;-81
2023/11/04 08:24:33;;;;;;;5.15;0.85;;;8.60;99.90;;;;;;4823348;29;20190;-84
2023/11/04 08:26:59;;;;;;;3.07;0.80;;;8.80;99.90;;;;;;4817803;29;20198;-81
2023/11/04 08:29:25;;;;;;;1.20;0.80;;;8.90;99.90;;;;;;4810092;29;20242;-82
2023/11/04 08:31:51;;;;;;;1.10;0.70;;;9.00;99.90;;;;;;4827382;29;20273;-82
2023/11/04 08:34:17;;;;;;;0.80;0.60;;;9.20;99.90;;;;;;4827093;29;20253;-82
2023/11/04 08:36:43;;;;;;;1.45;0.70;;;9.20;99.90;;;;;;4826727;29;20219;-80
2023/11/04 08:39:09;;;;;;;2.58;0.70;;;9.20;99.90;;;;;;4810744;29;20229;-82
2023/11/04 08:41:35;;;;;;;2.55;0.70;;;9.20;99.90;;;;;;4811083;29;20648;-81
2023/11/04 08:44:01;;;;;;;1.30;0.57;;;9.10;99.90;;;;;;4827069;29;20186;-80
2023/11/04 08:46:27;;;;;;;2.55;0.80;;;9.20;99.90;;;;;;4811124;29;20205;-81
2023/11/04 08:48:52;;;;;;;1.77;0.60;;;9.30;99.90;;;;;;4827129;29;20186;-82
2023/11/04 08:51:18;;;;;;;0.73;0.40;;;9.30;99.90;;;;;;4810670;29;20332;-81
2023/11/04 08:53:44;;;;;;;1.30;0.70;;;9.30;99.90;;;;;;4826715;29;20194;-82
2023/11/04 08:56:10;;;;;;;0.90;0.60;;;9.30;99.90;;;;;;4827033;29;20217;-81
2023/11/04 08:58:35;;;;;;;0.75;0.50;;;9.30;99.90;;;;;;4826872;29;20189;-80
2023/11/04 09:01:02;;;;;;;1.38;0.65;;;9.40;99.90;;;;;;4810693;29;20301;-81
2023/11/04 09:03:27;;;;;;;3.03;0.60;;;9.40;99.90;;;;;;4826892;29;20190;-84
2023/11/04 09:05:54;;;;;;;1.52;0.50;;;9.40;99.90;;;;;;4826927;29;20204;-80
2023/11/04 09:08:20;;;;;;;2.72;0.73;;;9.50;99.90;;;;;;4826360;29;20190;-81
2023/11/04 09:10:47;;;;;;;2.03;0.70;;;9.50;99.90;;;;;;4826901;29;20186;-81
2023/11/04 09:13:13;;;;;;;2.97;0.77;;;9.60;99.90;;;;;;4826748;29;20186;-81
2023/11/04 09:15:40;;;;;;;1.25;0.70;;;9.50;99.90;;;;;;4826964;29;20222;-80
2023/11/04 09:18:06;;;;;;;0.88;0.50;;;9.40;99.90;;;;;;4826681;29;20201;-79
2023/11/04 09:20:32;;;;;;;1.85;0.80;;;9.40;99.90;;;;;;4826631;29;20214;-81
2023/11/04 09:22:58;;;;;;;1.10;0.50;;;9.30;99.90;;;;;;4826703;29;20242;-81
2023/11/04 09:25:24;;;;;;;1.55;0.50;;;9.20;99.90;;;;;;4802816;29;20194;-80
2023/11/04 09:27:51;;;;;;;2.17;0.60;;;9.20;99.90;;;;;;4810113;29;20574;-81
2023/11/04 09:30:17;;;;;;;1.60;0.68;;;9.20;99.90;;;;;;4810312;29;20205;-81
2023/11/04 09:32:43;;;;;;;0.90;0.60;;;9.20;99.90;;;;;;4826473;29;20190;-80
2023/11/04 09:35:18;;;;;;;2.83;0.73;;;9.20;99.90;;;;;;4826215;29;20194;-80
2023/11/04 09:37:44;;;;;;;0.60;0.50;;;9.30;99.90;;;;;;4826033;29;20591;-81
2023/11/04 09:40:12;;;;;;;4.05;0.80;;;9.30;99.90;;;;;;4809169;29;20221;-81
2023/11/04 09:42:39;;;;;;;0.82;0.55;;;9.40;99.90;;;;;;4810032;29;20641;-80
2023/11/04 09:45:06;;;;;;;1.80;0.68;;;9.40;99.90;;;;;;4826280;29;20225;-80
2023/11/04 09:47:32;;;;;;;2.33;0.90;;;9.40;99.90;;;;;;4809692;29;20197;-81
2023/11/04 09:49:58;;;;;;;1.27;0.77;;;9.60;99.90;;;;;;4826138;29;20626;-83
2023/11/04 09:52:30;;;;;;;1.30;0.70;;;9.80;99.90;;;;;;4826187;29;20194;-80
2023/11/04 09:55:03;;;;;;;5.13;0.82;;;10.00;99.90;;;;;;4826105;29;20643;-81
2023/11/04 09:57:29;;;;;;;5.40;0.70;;;10.30;99.90;;;;;;4819221;29;20245;-82
2023/11/04 09:59:55;;;;;;;1.60;0.50;;;10.60;99.90;;;;;;4826041;29;20669;-79
2023/11/04 10:02:20;;;;;;;5.00;0.77;;;10.80;99.90;;;;;;4825947;29;20202;-82
2023/11/04 10:04:46;;;;;;;2.13;0.65;;;11.10;99.90;;;;;;4826000;29;20194;-82
2023/11/04 10:07:12;;;;;;;4.78;0.88;;;11.30;99.90;;;;;;4825819;29;20195;-82
2023/11/04 10:09:37;;;;;;;1.67;0.63;;;11.30;99.90;;;;;;4809401;29;20209;-80
2023/11/04 10:12:04;;;;;;;1.45;0.82;;;11.40;99.90;;;;;;4826085;29;20190;-82
2023/11/04 10:14:33;;;;;;;2.45;0.80;;;11.40;99.90;;;;;;4825851;29;20194;-81
2023/11/04 10:16:59;;;;;;;1.10;0.73;;;11.50;99.90;;;;;;4825532;29;20198;-80
2023/11/04 10:19:25;;;;;;;3.33;1.00;;;11.50;99.90;;;;;;4825921;29;20263;-80
2023/11/04 10:21:53;;;;;;;1.58;0.68;;;11.60;99.90;;;;;;4825806;29;20190;-82
2023/11/04 10:24:19;;;;;;;0.95;0.70;;;11.60;99.90;;;;;;4825575;29;20190;-81
2023/11/04 10:26:45;;;;;;;1.30;0.50;;;11.60;99.90;;;;;;4809473;29;20258;-82
2023/11/04 10:29:10;;;;;;;0.40;0.40;;;11.60;99.90;;;;;;4825551;29;20186;-82
2023/11/04 10:31:38;;;;;;;0.88;0.52;;;11.60;99.90;;;;;;4825925;29;20262;-80
2023/11/04 10:34:06;;;;;;;2.80;0.63;;;11.50;99.90;;;;;;4825625;29;20366;-83
2023/11/04 10:36:32;;;;;;;0.90;0.52;;;11.30;99.90;;;;;;4825539;29;20178;-81
2023/11/04 10:39:04;;;;;;;1.25;0.60;;;11.40;99.90;;;;;;4825241;29;20240;-81
2023/11/04 10:41:43;;;;;;;1.38;0.50;;;11.40;99.90;;;;;;4802430;29;20254;-80
2023/11/04 10:44:18;;;;;;;1.20;0.50;;;11.40;99.90;;;;;;4825382;29;20190;-82
2023/11/04 10:46:55;;;;;;;1.42;0.57;;;11.40;99.90;;;;;;4808934;29;20204;-80
2023/11/04 10:49:30;;;;;;;9.07;0.50;;;11.40;99.90;;;;;;4809449;29;20552;-82
2023/11/04 10:52:09;;;;;;;1.02;0.38;;;11.20;99.90;;;;;;4824474;29;20189;-80
2023/11/04 10:54:54;;;;;;;0.55;0.40;;;11.00;99.90;;;;;;4819027;29;20217;-83
2023/11/04 10:57:36;;;;;;;0.70;0.50;;;11.10;99.90;;;;;;4808765;29;20645;-81
2023/11/04 11:00:13;;;;;;;1.95;0.70;;;11.00;99.90;;;;;;4808811;29;20226;-84
2023/11/04 11:02:40;;;;;;;2.00;0.55;;;11.00;99.90;;;;;;4808900;29;20509;-83
2023/11/04 11:05:11;;;;;;;0.68;0.38;;;11.00;99.90;;;;;;4808734;29;20221;-81
2023/11/04 11:07:45;;;;;;;1.23;0.60;;;11.00;99.90;;;;;;4808495;29;20197;-80
2023/11/04 11:10:13;;;;;;;3.38;0.80;;;11.00;99.90;;;;;;4808491;29;20189;-81
2023/11/04 11:13:07;;;;;;;1.58;0.50;;;10.90;99.90;;;;;;4825336;29;20190;-80
2023/11/04 11:15:34;;;;;;;1.48;0.60;;;10.70;99.90;;;;;;4818631;29;20242;-81
2023/11/04 11:18:00;;;;;;;1.25;0.60;;;10.60;99.90;;;;;;4825316;29;20186;-80
2023/11/04 11:20:31;;;;;;;1.33;0.80;;;10.60;99.90;;;;;;4824932;29;20669;-81
2023/11/04 11:22:57;;;;;;;1.10;0.60;;;10.60;99.90;;;;;;4808669;29;20201;-80
2023/11/04 11:25:43;;;;;;;2.38;0.50;;;10.70;99.90;;;;;;4824479;29;20186;-80
2023/11/04 11:28:20;;;;;;;1.52;0.70;;;10.70;99.90;;;;;;4824899;29;20190;-80
2023/11/04 11:30:55;;;;;;;3.95;0.50;;;10.70;99.90;;;;;;4824929;29;20195;-82
2023/11/04 11:33:25;;;;;;;1.13;0.60;;;10.90;99.90;;;;;;4825019;29;20194;-81
2023/11/04 11:36:10;;;;;;;1.25;0.50;;;11.10;99.90;;;;;;4808393;29;20194;-81
2023/11/04 11:38:43;;;;;;;3.60;0.70;;;11.50;99.90;;;;;;4819231;29;20673;-80
2023/11/04 11:41:11;;;;;;;2.75;0.63;;;11.70;99.90;;;;;;4824671;29;20225;-80
2023/11/04 11:43:42;;;;;;;1.52;0.57;;;11.80;99.90;;;;;;4825066;29;20599;-80
2023/11/04 11:46:08;;;;;;;0.90;0.50;;;11.80;99.90;;;;;;4824774;29;20201;-79
2023/11/04 11:48:37;;;;;;;1.38;0.68;;;11.80;99.90;;;;;;4824942;29;20189;-82
2023/11/04 11:51:11;;;;;;;0.80;0.60;;;11.70;99.90;;;;;;4808617;29;20201;-82
2023/11/04 11:53:46;;;;;;;1.23;0.47;;;11.60;99.90;;;;;;4808588;29;20630;-79
2023/11/04 11:56:12;;;;;;;1.35;0.50;;;11.40;99.90;;;;;;4808284;29;20204;-80
2023/11/04 11:58:38;;;;;;;1.80;0.60;;;11.20;99.90;;;;;;4808477;29;20190;-82
2023/11/04 12:01:06;;;;;;;1.85;0.47;;;11.20;99.90;;;;;;4808745;29;20621;-80
2023/11/04 12:03:34;;;;;;;2.30;0.45;;;11.10;99.90;;;;;;4810055;29;20190;-83
2023/11/04 12:06:01;;;;;;;1.02;0.57;;;11.00;99.90;;;;;;4811961;29;20194;-80
2023/11/04 12:08:27;;;;;;;0.82;0.47;;;11.00;99.90;;;;;;4828192;29;20182;-82
2023/11/04 12:10:53;;;;;;;1.13;0.30;;;11.10;99.90;;;;;;4828228;29;20649;-84
2023/11/04 12:13:20;;;;;;;0.50;0.40;;;11.20;99.90;;;;;;4812372;29;20202;-89
2023/11/04 12:15:46;;;;;;;0.47;0.35;;;11.30;99.90;;;;;;4828598;29;20194;-82
2023/11/04 12:18:13;;;;;;;0.98;0.45;;;11.70;99.90;;;;;;4812207;29;20186;-80
2023/11/04 12:20:43;;;;;;;1.05;0.63;;;12.10;99.90;;;;;;4828649;29;20230;-80
2023/11/04 12:23:14;;;;;;;1.13;0.50;;;12.30;99.90;;;;;;4794448;29;20698;-81
2023/11/04 12:25:41;;;;;;;0.77;0.30;;;12.40;99.90;;;;;;4827542;29;20510;-80
2023/11/04 12:28:09;;;;;;;0.82;0.40;;;12.40;99.90;;;;;;4827784;29;20619;-81
2023/11/04 12:30:35;;;;;;;0.68;0.40;;;12.20;99.90;;;;;;4828290;29;20273;-81
2023/11/04 12:33:03;;;;;;;1.05;0.43;;;12.00;99.90;;;;;;4827579;29;20644;-82
2023/11/04 12:35:31;;;;;;;0.68;0.32;;;11.90;99.90;;;;;;4829256;29;20656;-85
2023/11/04 12:38:00;;;;;;;3.63;0.60;;;11.90;99.90;;;;;;4831343;29;20591;-88
2023/11/04 12:40:29;;;;;;;2.95;0.50;;;12.00;99.90;;;;;;4831716;29;20220;-91
2023/11/04 12:43:02;;;;;;;1.15;0.40;;;11.90;99.90;;;;;;4813980;29;20198;-86
2023/11/04 12:45:28;;;;;;;0.85;0.40;;;11.90;99.90;;;;;;4828593;29;20182;-85
2023/11/04 12:47:54;;;;;;;1.35;0.50;;;11.90;99.90;;;;;;4828307;29;20575;-80
2023/11/04 12:50:20;;;;;;;0.50;0.38;;;11.90;99.90;;;;;;4828353;29;20193;-85
2023/11/04 12:52:46;;;;;;;3.03;0.50;;;12.10;99.90;;;;;;4827720;29;20182;-80
2023/11/04 12:55:13;;;;;;;0.90;0.40;;;12.20;99.90;;;;;;4827717;29;20221;-81